sensor_id;sensor_type;location;lat;lon;timestamp;pressure;altitude;pressure_sealevel;temperature;humidity
39275;BME280;24980;48.874;2.332;2023-06-14T00:00:15;100670.94;;;28.93;38.83
39275;BME280;24980;48.874;2.332;2023-06-14T00:02:44;100671.78;;;28.93;38.82
39275;BME280;24980;48.874;2.332;2023-06-14T00:05:17;100668.01;;;28.91;38.79
39275;BME280;24980;48.874;2.332;2023-06-14T00:07:44;100668.03;;;28.91;38.80
39275;BME280;24980;48.874;2.332;2023-06-14T00:10:14;100671.19;;;28.90;38.80
39275;BME280;24980;48.874;2.332;2023-06-14T00:12:44;100670.08;;;28.91;38.82
39275;BME280;24980;48.874;2.332;2023-06-14T00:15:15;100667.84;;;28.91;38.83
39275;BME280;24980;48.874;2.332;2023-06-14T00:17:45;100672.35;;;28.91;38.84
39275;BME280;24980;48.874;2.332;2023-06-14T00:20:15;100676.27;;;28.91;38.85
39275;BME280;24980;48.874;2.332;2023-06-14T00:22:45;100675.09;;;28.90;38.85
39275;BME280;24980;48.874;2.332;2023-06-14T00:25:15;100675.11;;;28.89;38.86
39275;BME280;24980;48.874;2.332;2023-06-14T00:27:47;100679.23;;;28.88;38.86
39275;BME280;24980;48.874;2.332;2023-06-14T00:30:16;100673.91;;;28.87;38.86
39275;BME280;24980;48.874;2.332;2023-06-14T00:32:47;100676.97;;;28.86;38.86
39275;BME280;24980;48.874;2.332;2023-06-14T00:35:17;100681.10;;;28.85;38.87
39275;BME280;24980;48.874;2.332;2023-06-14T00:37:47;100676.88;;;28.84;38.88
39275;BME280;24980;48.874;2.332;2023-06-14T00:40:16;100681.20;;;28.83;38.88
39275;BME280;24980;48.874;2.332;2023-06-14T00:42:47;100683.97;;;28.82;38.88
39275;BME280;24980;48.874;2.332;2023-06-14T00:45:23;100681.03;;;28.80;38.86
39275;BME280;24980;48.874;2.332;2023-06-14T00:47:50;100685.17;;;28.80;38.86
39275;BME280;24980;48.874;2.332;2023-06-14T00:50:20;100687.94;;;28.79;38.85
39275;BME280;24980;48.874;2.332;2023-06-14T00:52:49;100689.41;;;28.78;38.85
39275;BME280;24980;48.874;2.332;2023-06-14T00:55:20;100685.16;;;28.76;38.84
39275;BME280;24980;48.874;2.332;2023-06-14T00:57:50;100688.24;;;28.76;38.84
39275;BME280;24980;48.874;2.332;2023-06-14T01:00:21;100686.39;;;28.75;38.83
39275;BME280;24980;48.874;2.332;2023-06-14T01:02:51;100683.78;;;28.74;38.83
39275;BME280;24980;48.874;2.332;2023-06-14T01:05:21;100689.47;;;28.73;38.81
39275;BME280;24980;48.874;2.332;2023-06-14T01:13:15;100690.06;;;28.71;38.78
39275;BME280;24980;48.874;2.332;2023-06-14T01:15:24;100684.50;;;28.70;38.78
39275;BME280;24980;48.874;2.332;2023-06-14T01:17:53;100685.48;;;28.69;38.76
39275;BME280;24980;48.874;2.332;2023-06-14T01:20:28;100692.15;;;28.68;38.76
39275;BME280;24980;48.874;2.332;2023-06-14T01:22:54;100691.55;;;28.67;38.76
39275;BME280;24980;48.874;2.332;2023-06-14T01:25:24;100694.66;;;28.66;38.75
39275;BME280;24980;48.874;2.332;2023-06-14T01:28:00;100700.38;;;28.65;38.75
39275;BME280;24980;48.874;2.332;2023-06-14T01:30:25;100699.86;;;28.65;38.75
39275;BME280;24980;48.874;2.332;2023-06-14T01:32:56;100700.30;;;28.64;38.75
39275;BME280;24980;48.874;2.332;2023-06-14T01:35:25;100700.62;;;28.63;38.75
39275;BME280;24980;48.874;2.332;2023-06-14T01:37:56;100697.41;;;28.62;38.75
39275;BME280;24980;48.874;2.332;2023-06-14T01:40:29;100695.29;;;28.62;38.77
39275;BME280;24980;48.874;2.332;2023-06-14T01:42:57;100691.05;;;28.62;38.76
39275;BME280;24980;48.874;2.332;2023-06-14T01:45:27;100694.34;;;28.61;38.76
39275;BME280;24980;48.874;2.332;2023-06-14T01:47:57;100691.92;;;28.59;38.74
39275;BME280;24980;48.874;2.332;2023-06-14T01:50:30;100696.30;;;28.59;38.74
39275;BME280;24980;48.874;2.332;2023-06-14T01:52:58;100697.09;;;28.58;38.74
39275;BME280;24980;48.874;2.332;2023-06-14T01:55:28;100696.89;;;28.57;38.73
39275;BME280;24980;48.874;2.332;2023-06-14T01:57:58;100696.91;;;28.57;38.73
39275;BME280;24980;48.874;2.332;2023-06-14T02:00:28;100692.26;;;28.55;38.72
39275;BME280;24980;48.874;2.332;2023-06-14T02:02:58;100692.16;;;28.54;38.72
39275;BME280;24980;48.874;2.332;2023-06-14T02:05:28;100693.29;;;28.53;38.71
39275;BME280;24980;48.874;2.332;2023-06-14T02:07:58;100694.86;;;28.52;38.70
39275;BME280;24980;48.874;2.332;2023-06-14T02:10:28;100694.47;;;28.51;38.69
39275;BME280;24980;48.874;2.332;2023-06-14T02:13:00;100695.33;;;28.51;38.67
39275;BME280;24980;48.874;2.332;2023-06-14T02:15:28;100695.42;;;28.49;38.66
39275;BME280;24980;48.874;2.332;2023-06-14T02:17:58;100690.76;;;28.48;38.64
39275;BME280;24980;48.874;2.332;2023-06-14T02:20:29;100697.62;;;28.48;38.63
39275;BME280;24980;48.874;2.332;2023-06-14T02:23:00;100698.33;;;28.47;38.61
39275;BME280;24980;48.874;2.332;2023-06-14T02:25:30;100702.45;;;28.46;38.61
39275;BME280;24980;48.874;2.332;2023-06-14T02:28:01;100702.75;;;28.45;38.61
39275;BME280;24980;48.874;2.332;2023-06-14T02:30:30;100703.84;;;28.44;38.61
39275;BME280;24980;48.874;2.332;2023-06-14T02:33:00;100707.09;;;28.44;38.59
39275;BME280;24980;48.874;2.332;2023-06-14T02:35:30;100702.34;;;28.43;38.58
39275;BME280;24980;48.874;2.332;2023-06-14T02:38:00;100705.92;;;28.43;38.58
39275;BME280;24980;48.874;2.332;2023-06-14T02:40:30;100705.88;;;28.42;38.57
39275;BME280;24980;48.874;2.332;2023-06-14T02:43:00;100706.11;;;28.41;38.57
39275;BME280;24980;48.874;2.332;2023-06-14T02:45:32;100709.78;;;28.41;38.57
39275;BME280;24980;48.874;2.332;2023-06-14T02:48:00;100711.52;;;28.40;38.56
39275;BME280;24980;48.874;2.332;2023-06-14T02:50:31;100713.27;;;28.39;38.56
39275;BME280;24980;48.874;2.332;2023-06-14T02:53:01;100711.62;;;28.38;38.54
39275;BME280;24980;48.874;2.332;2023-06-14T02:55:33;100714.20;;;28.37;38.54
39275;BME280;24980;48.874;2.332;2023-06-14T02:58:01;100715.52;;;28.36;38.53
39275;BME280;24980;48.874;2.332;2023-06-14T03:00:32;100716.95;;;28.35;38.53
39275;BME280;24980;48.874;2.332;2023-06-14T03:03:02;100714.14;;;28.35;38.52
39275;BME280;24980;48.874;2.332;2023-06-14T03:05:32;100714.85;;;28.34;38.51
39275;BME280;24980;48.874;2.332;2023-06-14T03:08:02;100715.64;;;28.33;38.49
39275;BME280;24980;48.874;2.332;2023-06-14T03:10:32;100720.70;;;28.32;38.49
39275;BME280;24980;48.874;2.332;2023-06-14T03:13:02;100721.09;;;28.32;38.49
39275;BME280;24980;48.874;2.332;2023-06-14T03:15:38;100720.09;;;28.31;38.49
39275;BME280;24980;48.874;2.332;2023-06-14T03:18:03;100722.50;;;28.30;38.48
39275;BME280;24980;48.874;2.332;2023-06-14T03:20:33;100725.27;;;28.29;38.48
39275;BME280;24980;48.874;2.332;2023-06-14T03:23:03;100727.19;;;28.29;38.48
39275;BME280;24980;48.874;2.332;2023-06-14T03:25:33;100728.08;;;28.27;38.47
39275;BME280;24980;48.874;2.332;2023-06-14T03:28:03;100736.45;;;28.26;38.47
39275;BME280;24980;48.874;2.332;2023-06-14T03:30:33;100739.71;;;28.26;38.46
39275;BME280;24980;48.874;2.332;2023-06-14T03:33:06;100743.02;;;28.25;38.48
39275;BME280;24980;48.874;2.332;2023-06-14T03:35:34;100742.94;;;28.25;38.51
39275;BME280;24980;48.874;2.332;2023-06-14T03:38:04;100744.22;;;28.24;38.55
39275;BME280;24980;48.874;2.332;2023-06-14T03:40:34;100749.77;;;28.24;38.58
39275;BME280;24980;48.874;2.332;2023-06-14T03:43:04;100747.81;;;28.24;38.60
39275;BME280;24980;48.874;2.332;2023-06-14T03:45:34;100751.62;;;28.22;38.62
39275;BME280;24980;48.874;2.332;2023-06-14T03:48:04;100751.44;;;28.22;38.62
39275;BME280;24980;48.874;2.332;2023-06-14T03:50:34;100750.59;;;28.22;38.62
39275;BME280;24980;48.874;2.332;2023-06-14T03:53:04;100752.34;;;28.22;38.61
39275;BME280;24980;48.874;2.332;2023-06-14T03:55:35;100758.17;;;28.21;38.61
39275;BME280;24980;48.874;2.332;2023-06-14T03:58:05;100761.48;;;28.21;38.60
39275;BME280;24980;48.874;2.332;2023-06-14T04:00:35;100763.59;;;28.19;38.58
39275;BME280;24980;48.874;2.332;2023-06-14T04:03:05;100766.45;;;28.19;38.56
39275;BME280;24980;48.874;2.332;2023-06-14T04:05:35;100765.72;;;28.18;38.55
39275;BME280;24980;48.874;2.332;2023-06-14T04:08:05;100763.55;;;28.16;38.55
39275;BME280;24980;48.874;2.332;2023-06-14T04:10:35;100763.43;;;28.16;38.55
39275;BME280;24980;48.874;2.332;2023-06-14T04:13:05;100766.00;;;28.15;38.54
39275;BME280;24980;48.874;2.332;2023-06-14T04:15:37;100770.88;;;28.14;38.54
39275;BME280;24980;48.874;2.332;2023-06-14T04:18:06;100766.65;;;28.13;38.52
39275;BME280;24980;48.874;2.332;2023-06-14T04:20:36;100765.95;;;28.12;38.51
39275;BME280;24980;48.874;2.332;2023-06-14T04:23:16;100770.77;;;28.11;38.50
39275;BME280;24980;48.874;2.332;2023-06-14T04:25:37;100778.20;;;28.10;38.49
39275;BME280;24980;48.874;2.332;2023-06-14T04:28:07;100780.34;;;28.10;38.47
39275;BME280;24980;48.874;2.332;2023-06-14T04:30:37;100778.53;;;28.09;38.47
39275;BME280;24980;48.874;2.332;2023-06-14T04:33:07;100779.85;;;28.07;38.46
39275;BME280;24980;48.874;2.332;2023-06-14T04:35:37;100785.83;;;28.07;38.46
39275;BME280;24980;48.874;2.332;2023-06-14T04:38:08;100790.59;;;28.06;38.45
39275;BME280;24980;48.874;2.332;2023-06-14T04:40:38;100790.00;;;28.04;38.45
39275;BME280;24980;48.874;2.332;2023-06-14T04:43:10;100791.98;;;28.03;38.43
39275;BME280;24980;48.874;2.332;2023-06-14T04:45:39;100787.02;;;28.02;38.45
39275;BME280;24980;48.874;2.332;2023-06-14T04:48:09;100790.17;;;28.03;38.45
39275;BME280;24980;48.874;2.332;2023-06-14T04:50:39;100787.14;;;28.01;38.44
39275;BME280;24980;48.874;2.332;2023-06-14T04:53:09;100789.03;;;28.00;38.44
39275;BME280;24980;48.874;2.332;2023-06-14T04:55:39;100791.31;;;27.99;38.45
39275;BME280;24980;48.874;2.332;2023-06-14T04:58:10;100793.12;;;27.99;38.45
39275;BME280;24980;48.874;2.332;2023-06-14T05:00:39;100788.70;;;27.98;38.45
39275;BME280;24980;48.874;2.332;2023-06-14T05:03:09;100788.30;;;27.97;38.45
39275;BME280;24980;48.874;2.332;2023-06-14T05:05:40;100789.34;;;27.97;38.45
39275;BME280;24980;48.874;2.332;2023-06-14T05:08:10;100791.94;;;27.96;38.45
39275;BME280;24980;48.874;2.332;2023-06-14T05:10:40;100795.45;;;27.96;38.45
39275;BME280;24980;48.874;2.332;2023-06-14T05:13:10;100794.89;;;27.95;38.45
39275;BME280;24980;48.874;2.332;2023-06-14T05:15:40;100795.75;;;27.94;38.45
39275;BME280;24980;48.874;2.332;2023-06-14T05:18:10;100795.01;;;27.94;38.46
39275;BME280;24980;48.874;2.332;2023-06-14T05:20:40;100793.48;;;27.94;38.46
39275;BME280;24980;48.874;2.332;2023-06-14T05:23:11;100796.17;;;27.93;38.46
39275;BME280;24980;48.874;2.332;2023-06-14T05:25:44;100798.06;;;27.92;38.46
39275;BME280;24980;48.874;2.332;2023-06-14T05:28:12;100797.48;;;27.92;38.46
39275;BME280;24980;48.874;2.332;2023-06-14T05:30:42;100800.13;;;27.91;38.46
39275;BME280;24980;48.874;2.332;2023-06-14T05:33:12;100801.76;;;27.91;38.46
39275;BME280;24980;48.874;2.332;2023-06-14T05:35:42;100802.16;;;27.90;38.46
39275;BME280;24980;48.874;2.332;2023-06-14T05:38:12;100803.70;;;27.90;38.47
39275;BME280;24980;48.874;2.332;2023-06-14T05:40:42;100811.66;;;27.89;38.47
39275;BME280;24980;48.874;2.332;2023-06-14T05:43:12;100811.31;;;27.89;38.47
39275;BME280;24980;48.874;2.332;2023-06-14T05:45:42;100808.27;;;27.88;38.47
39275;BME280;24980;48.874;2.332;2023-06-14T05:48:12;100809.55;;;27.88;38.47
39275;BME280;24980;48.874;2.332;2023-06-14T05:50:42;100813.74;;;27.87;38.47
39275;BME280;24980;48.874;2.332;2023-06-14T05:53:12;100811.58;;;27.87;38.48
39275;BME280;24980;48.874;2.332;2023-06-14T05:55:42;100810.13;;;27.87;38.48
39275;BME280;24980;48.874;2.332;2023-06-14T05:58:12;100814.14;;;27.86;38.48
39275;BME280;24980;48.874;2.332;2023-06-14T06:00:45;100814.84;;;27.86;38.46
39275;BME280;24980;48.874;2.332;2023-06-14T06:03:13;100815.89;;;27.85;38.46
39275;BME280;24980;48.874;2.332;2023-06-14T06:05:43;100820.26;;;27.84;38.45
39275;BME280;24980;48.874;2.332;2023-06-14T06:08:13;100822.13;;;27.84;38.45
39275;BME280;24980;48.874;2.332;2023-06-14T06:10:44;100821.52;;;27.83;38.47
39275;BME280;24980;48.874;2.332;2023-06-14T06:13:14;100826.61;;;27.84;38.47
39275;BME280;24980;48.874;2.332;2023-06-14T06:15:44;100829.19;;;27.83;38.50
39275;BME280;24980;48.874;2.332;2023-06-14T06:18:15;100833.89;;;27.82;38.53
39275;BME280;24980;48.874;2.332;2023-06-14T06:20:44;100833.57;;;27.81;38.59
39275;BME280;24980;48.874;2.332;2023-06-14T06:23:15;100831.25;;;27.82;38.62
39275;BME280;24980;48.874;2.332;2023-06-14T06:25:45;100834.21;;;27.85;38.62
39275;BME280;24980;48.874;2.332;2023-06-14T06:28:15;100834.76;;;27.86;38.61
39275;BME280;24980;48.874;2.332;2023-06-14T06:30:45;100833.81;;;27.87;38.60
39275;BME280;24980;48.874;2.332;2023-06-14T06:33:15;100835.22;;;27.85;38.59
39275;BME280;24980;48.874;2.332;2023-06-14T06:35:46;100837.30;;;27.84;38.58
39275;BME280;24980;48.874;2.332;2023-06-14T06:38:16;100837.29;;;27.82;38.55
39275;BME280;24980;48.874;2.332;2023-06-14T06:40:46;100840.98;;;27.81;38.54
39275;BME280;24980;48.874;2.332;2023-06-14T06:43:16;100840.30;;;27.82;38.51
39275;BME280;24980;48.874;2.332;2023-06-14T06:45:46;100845.41;;;27.82;38.48
39275;BME280;24980;48.874;2.332;2023-06-14T06:48:19;100842.43;;;27.81;38.47
39275;BME280;24980;48.874;2.332;2023-06-14T06:50:47;100843.16;;;27.83;38.45
39275;BME280;24980;48.874;2.332;2023-06-14T06:53:17;100842.44;;;27.86;38.44
39275;BME280;24980;48.874;2.332;2023-06-14T06:55:48;100846.94;;;27.87;38.45
39275;BME280;24980;48.874;2.332;2023-06-14T06:58:19;100848.74;;;27.86;38.46
39275;BME280;24980;48.874;2.332;2023-06-14T07:00:48;100851.02;;;27.84;38.47
39275;BME280;24980;48.874;2.332;2023-06-14T07:03:18;100852.70;;;27.83;38.46
39275;BME280;24980;48.874;2.332;2023-06-14T07:05:50;100858.42;;;27.80;38.44
39275;BME280;24980;48.874;2.332;2023-06-14T07:08:19;100861.38;;;27.78;38.42
39275;BME280;24980;48.874;2.332;2023-06-14T07:10:50;100867.52;;;27.78;38.41
39275;BME280;24980;48.874;2.332;2023-06-14T07:13:19;100863.77;;;27.76;38.41
39275;BME280;24980;48.874;2.332;2023-06-14T07:15:49;100868.92;;;27.74;38.42
39275;BME280;24980;48.874;2.332;2023-06-14T07:18:19;100866.87;;;27.71;38.40
39275;BME280;24980;48.874;2.332;2023-06-14T07:20:52;100873.80;;;27.69;38.35
39275;BME280;24980;48.874;2.332;2023-06-14T07:23:20;100876.29;;;27.69;38.30
39275;BME280;24980;48.874;2.332;2023-06-14T07:25:50;100881.67;;;27.68;38.28
39275;BME280;24980;48.874;2.332;2023-06-14T07:28:20;100885.64;;;27.67;38.27
39275;BME280;24980;48.874;2.332;2023-06-14T07:30:50;100882.82;;;27.68;38.25
39275;BME280;24980;48.874;2.332;2023-06-14T07:33:20;100891.45;;;27.66;38.22
39275;BME280;24980;48.874;2.332;2023-06-14T07:35:51;100891.06;;;27.65;38.21
39275;BME280;24980;48.874;2.332;2023-06-14T07:38:25;100893.11;;;27.65;38.19
39275;BME280;24980;48.874;2.332;2023-06-14T07:40:51;100892.73;;;27.64;38.16
39275;BME280;24980;48.874;2.332;2023-06-14T07:43:23;100895.14;;;27.63;38.14
39275;BME280;24980;48.874;2.332;2023-06-14T07:45:52;100900.44;;;27.63;38.13
39275;BME280;24980;48.874;2.332;2023-06-14T07:48:26;100901.11;;;27.63;38.13
39275;BME280;24980;48.874;2.332;2023-06-14T07:50:53;100902.81;;;27.63;38.13
39275;BME280;24980;48.874;2.332;2023-06-14T07:53:24;100902.03;;;27.64;38.14
39275;BME280;24980;48.874;2.332;2023-06-14T07:55:56;100901.44;;;27.64;38.15
39275;BME280;24980;48.874;2.332;2023-06-14T07:58:23;100898.80;;;27.64;38.17
39275;BME280;24980;48.874;2.332;2023-06-14T08:00:53;100901.30;;;27.65;38.19
39275;BME280;24980;48.874;2.332;2023-06-14T08:03:25;100902.89;;;27.65;38.21
39275;BME280;24980;48.874;2.332;2023-06-14T08:05:53;100902.12;;;27.66;38.23
39275;BME280;24980;48.874;2.332;2023-06-14T08:08:23;100901.84;;;27.66;38.24
39275;BME280;24980;48.874;2.332;2023-06-14T08:10:55;100901.16;;;27.67;38.27
39275;BME280;24980;48.874;2.332;2023-06-14T08:13:24;100902.86;;;27.67;38.30
39275;BME280;24980;48.874;2.332;2023-06-14T08:15:54;100902.17;;;27.67;38.32
39275;BME280;24980;48.874;2.332;2023-06-14T08:18:25;100902.77;;;27.67;38.35
39275;BME280;24980;48.874;2.332;2023-06-14T08:20:55;100908.12;;;27.67;38.37
39275;BME280;24980;48.874;2.332;2023-06-14T08:23:25;100910.75;;;27.68;38.39
39275;BME280;24980;48.874;2.332;2023-06-14T08:25:55;100910.42;;;27.67;38.42
39275;BME280;24980;48.874;2.332;2023-06-14T08:28:25;100909.67;;;27.67;38.43
39275;BME280;24980;48.874;2.332;2023-06-14T08:30:55;100905.77;;;27.66;38.45
39275;BME280;24980;48.874;2.332;2023-06-14T08:33:25;100906.86;;;27.67;38.46
39275;BME280;24980;48.874;2.332;2023-06-14T08:35:55;100910.28;;;27.66;38.47
39275;BME280;24980;48.874;2.332;2023-06-14T08:38:25;100907.99;;;27.66;38.48
39275;BME280;24980;48.874;2.332;2023-06-14T08:40:57;100908.94;;;27.66;38.49
39275;BME280;24980;48.874;2.332;2023-06-14T08:43:29;100910.11;;;27.66;38.49
39275;BME280;24980;48.874;2.332;2023-06-14T08:46:02;100910.22;;;27.65;38.49
39275;BME280;24980;48.874;2.332;2023-06-14T08:48:27;100912.20;;;27.65;38.48
39275;BME280;24980;48.874;2.332;2023-06-14T08:51:00;100915.76;;;27.65;38.47
39275;BME280;24980;48.874;2.332;2023-06-14T08:53:30;100914.12;;;27.66;38.46
39275;BME280;24980;48.874;2.332;2023-06-14T08:55:59;100918.80;;;27.66;38.45
39275;BME280;24980;48.874;2.332;2023-06-14T08:58:29;100915.30;;;27.66;38.43
39275;BME280;24980;48.874;2.332;2023-06-14T09:01:01;100909.50;;;27.67;38.42
39275;BME280;24980;48.874;2.332;2023-06-14T09:03:30;100912.56;;;27.67;38.38
39275;BME280;24980;48.874;2.332;2023-06-14T09:06:00;100918.95;;;27.67;38.36
39275;BME280;24980;48.874;2.332;2023-06-14T09:08:31;100918.00;;;27.67;38.35
39275;BME280;24980;48.874;2.332;2023-06-14T09:11:01;100915.23;;;27.68;38.31
39275;BME280;24980;48.874;2.332;2023-06-14T09:13:32;100912.83;;;27.68;38.29
39275;BME280;24980;48.874;2.332;2023-06-14T09:16:02;100919.89;;;27.69;38.27
39275;BME280;24980;48.874;2.332;2023-06-14T09:18:39;100916.81;;;27.69;38.23
39275;BME280;24980;48.874;2.332;2023-06-14T09:21:02;100918.41;;;27.70;38.20
39275;BME280;24980;48.874;2.332;2023-06-14T09:23:41;100918.32;;;27.70;38.18
39275;BME280;24980;48.874;2.332;2023-06-14T09:26:08;100915.54;;;27.71;38.15
39275;BME280;24980;48.874;2.332;2023-06-14T09:28:45;100920.29;;;27.72;38.12
39275;BME280;24980;48.874;2.332;2023-06-14T09:31:04;100924.02;;;27.72;38.09
39275;BME280;24980;48.874;2.332;2023-06-14T09:33:34;100926.21;;;27.73;38.06
39275;BME280;24980;48.874;2.332;2023-06-14T09:36:10;100922.28;;;27.74;38.03
39275;BME280;24980;48.874;2.332;2023-06-14T09:38:35;100925.21;;;27.74;38.00
39275;BME280;24980;48.874;2.332;2023-06-14T09:41:08;100919.33;;;27.75;37.98
39275;BME280;24980;48.874;2.332;2023-06-14T09:43:36;100928.00;;;27.75;37.94
39275;BME280;24980;48.874;2.332;2023-06-14T09:46:08;100928.22;;;27.77;37.91
39275;BME280;24980;48.874;2.332;2023-06-14T09:48:37;100928.16;;;27.78;37.88
39275;BME280;24980;48.874;2.332;2023-06-14T09:51:08;100925.94;;;27.78;37.86
39275;BME280;24980;48.874;2.332;2023-06-14T09:53:40;100931.27;;;27.79;37.84
39275;BME280;24980;48.874;2.332;2023-06-14T09:56:10;100927.20;;;27.81;37.83
39275;BME280;24980;48.874;2.332;2023-06-14T09:58:40;100930.92;;;27.82;37.84
39275;BME280;24980;48.874;2.332;2023-06-14T10:01:09;100933.88;;;27.82;37.83
39275;BME280;24980;48.874;2.332;2023-06-14T10:03:40;100936.36;;;27.84;37.82
39275;BME280;24980;48.874;2.332;2023-06-14T10:06:11;100939.05;;;27.85;37.80
39275;BME280;24980;48.874;2.332;2023-06-14T10:08:40;100938.08;;;27.87;37.78
39275;BME280;24980;48.874;2.332;2023-06-14T10:11:13;100934.01;;;27.88;37.77
39275;BME280;24980;48.874;2.332;2023-06-14T10:13:41;100939.16;;;27.90;37.75
39275;BME280;24980;48.874;2.332;2023-06-14T10:16:27;100936.78;;;27.91;37.74
39275;BME280;24980;48.874;2.332;2023-06-14T10:18:53;100935.81;;;27.93;37.72
39275;BME280;24980;48.874;2.332;2023-06-14T10:23:45;100938.08;;;27.96;37.69
39275;BME280;24980;48.874;2.332;2023-06-14T10:26:22;100941.73;;;27.98;37.68
39275;BME280;24980;48.874;2.332;2023-06-14T10:28:59;100941.70;;;27.99;37.66
39275;BME280;24980;48.874;2.332;2023-06-14T10:31:19;100931.41;;;28.00;37.64
39275;BME280;24980;48.874;2.332;2023-06-14T10:33:52;100927.99;;;28.01;37.62
39275;BME280;24980;48.874;2.332;2023-06-14T10:36:27;100926.70;;;28.01;37.62
39275;BME280;24980;48.874;2.332;2023-06-14T10:39:08;100932.90;;;28.04;37.63
39275;BME280;24980;48.874;2.332;2023-06-14T10:41:18;100933.06;;;28.06;37.62
39275;BME280;24980;48.874;2.332;2023-06-14T10:43:49;100927.75;;;28.08;37.61
39275;BME280;24980;48.874;2.332;2023-06-14T10:46:22;100929.59;;;28.09;37.61
39275;BME280;24980;48.874;2.332;2023-06-14T10:48:56;100916.98;;;28.11;37.61
39275;BME280;24980;48.874;2.332;2023-06-14T10:51:21;100918.82;;;28.13;37.60
39275;BME280;24980;48.874;2.332;2023-06-14T10:53:52;100920.63;;;28.14;37.61
39275;BME280;24980;48.874;2.332;2023-06-14T10:56:29;100916.67;;;28.15;37.61
39275;BME280;24980;48.874;2.332;2023-06-14T10:58:52;100921.12;;;28.16;37.63
39275;BME280;24980;48.874;2.332;2023-06-14T11:01:41;100924.72;;;28.19;37.62
39275;BME280;24980;48.874;2.332;2023-06-14T11:03:56;100930.70;;;28.20;37.62
39275;BME280;24980;48.874;2.332;2023-06-14T11:06:29;100920.61;;;28.21;37.62
39275;BME280;24980;48.874;2.332;2023-06-14T11:11:31;100929.77;;;28.25;37.61
39275;BME280;24980;48.874;2.332;2023-06-14T11:13:54;100918.41;;;28.25;37.60
39275;BME280;24980;48.874;2.332;2023-06-14T11:16:26;100927.45;;;28.27;37.60
39275;BME280;24980;48.874;2.332;2023-06-14T11:18:55;100924.94;;;28.29;37.58
39275;BME280;24980;48.874;2.332;2023-06-14T11:21:25;100921.28;;;28.30;37.58
39275;BME280;24980;48.874;2.332;2023-06-14T11:24:01;100915.39;;;28.32;37.57
39275;BME280;24980;48.874;2.332;2023-06-14T11:26:30;100915.62;;;28.33;37.56
39275;BME280;24980;48.874;2.332;2023-06-14T11:28:58;100920.03;;;28.34;37.55
39275;BME280;24980;48.874;2.332;2023-06-14T11:31:27;100909.70;;;28.35;37.53
39275;BME280;24980;48.874;2.332;2023-06-14T11:33:58;100916.67;;;28.37;37.52
39275;BME280;24980;48.874;2.332;2023-06-14T11:36:28;100907.19;;;28.38;37.50
39275;BME280;24980;48.874;2.332;2023-06-14T11:39:04;100902.62;;;28.38;37.47
39275;BME280;24980;48.874;2.332;2023-06-14T11:41:32;100904.87;;;28.40;37.45
39275;BME280;24980;48.874;2.332;2023-06-14T11:44:00;100907.00;;;28.42;37.43
39275;BME280;24980;48.874;2.332;2023-06-14T11:46:28;100905.86;;;28.43;37.42
39275;BME280;24980;48.874;2.332;2023-06-14T11:48:59;100900.99;;;28.45;37.41
39275;BME280;24980;48.874;2.332;2023-06-14T11:51:37;100902.23;;;28.46;37.41
39275;BME280;24980;48.874;2.332;2023-06-14T11:53:59;100903.62;;;28.48;37.39
39275;BME280;24980;48.874;2.332;2023-06-14T11:56:31;100905.52;;;28.49;37.38
39275;BME280;24980;48.874;2.332;2023-06-14T11:59:04;100910.42;;;28.51;37.38
39275;BME280;24980;48.874;2.332;2023-06-14T12:01:37;100899.12;;;28.51;37.36
39275;BME280;24980;48.874;2.332;2023-06-14T12:04:06;100898.06;;;28.52;37.37
39275;BME280;24980;48.874;2.332;2023-06-14T12:06:32;100896.31;;;28.54;37.37
39275;BME280;24980;48.874;2.332;2023-06-14T12:09:06;100904.86;;;28.55;37.36
39275;BME280;24980;48.874;2.332;2023-06-14T12:11:34;100900.19;;;28.57;37.35
39275;BME280;24980;48.874;2.332;2023-06-14T12:14:07;100897.49;;;28.58;37.35
39275;BME280;24980;48.874;2.332;2023-06-14T12:16:34;100894.47;;;28.59;37.35
39275;BME280;24980;48.874;2.332;2023-06-14T12:19:13;100898.70;;;28.60;37.34
39275;BME280;24980;48.874;2.332;2023-06-14T12:21:34;100897.69;;;28.61;37.36
39275;BME280;24980;48.874;2.332;2023-06-14T12:24:05;100890.85;;;28.62;37.34
39275;BME280;24980;48.874;2.332;2023-06-14T12:26:38;100894.42;;;28.62;37.34
39275;BME280;24980;48.874;2.332;2023-06-14T12:29:10;100892.80;;;28.63;37.34
39275;BME280;24980;48.874;2.332;2023-06-14T12:31:37;100899.10;;;28.64;37.35
39275;BME280;24980;48.874;2.332;2023-06-14T12:34:07;100896.36;;;28.66;37.35
39275;BME280;24980;48.874;2.332;2023-06-14T12:36:38;100895.38;;;28.67;37.35
39275;BME280;24980;48.874;2.332;2023-06-14T12:39:08;100898.30;;;28.68;37.35
39275;BME280;24980;48.874;2.332;2023-06-14T12:41:38;100898.76;;;28.70;37.34
39275;BME280;24980;48.874;2.332;2023-06-14T12:44:10;100905.09;;;28.71;37.34
39275;BME280;24980;48.874;2.332;2023-06-14T12:46:40;100906.33;;;28.72;37.35
39275;BME280;24980;48.874;2.332;2023-06-14T12:49:11;100898.79;;;28.73;37.36
39275;BME280;24980;48.874;2.332;2023-06-14T12:51:41;100899.73;;;28.75;37.37
39275;BME280;24980;48.874;2.332;2023-06-14T12:54:11;100895.69;;;28.76;37.36
39275;BME280;24980;48.874;2.332;2023-06-14T12:56:41;100892.12;;;28.77;37.36
39275;BME280;24980;48.874;2.332;2023-06-14T12:59:11;100887.14;;;28.78;37.35
39275;BME280;24980;48.874;2.332;2023-06-14T13:01:42;100893.74;;;28.80;37.34
39275;BME280;24980;48.874;2.332;2023-06-14T13:04:14;100894.08;;;28.80;37.33
39275;BME280;24980;48.874;2.332;2023-06-14T13:06:46;100898.34;;;28.82;37.32
39275;BME280;24980;48.874;2.332;2023-06-14T13:09:13;100896.09;;;28.83;37.31
39275;BME280;24980;48.874;2.332;2023-06-14T13:11:44;100895.86;;;28.84;37.31
39275;BME280;24980;48.874;2.332;2023-06-14T13:14:14;100895.30;;;28.85;37.30